Time;durP1;ratioP1;P1;durP2;ratioP2;P2;SDS_P1;SDS_P2;PMS_P1;PMS_P2;Temp;Humidity;BMP_temperature;BMP_pressure;BME280_temperature;BME280_humidity;BME280_pressure;Samples;Min_cycle;Max_cycle;Signal;HPM_P1;HPM_P2
2021/12/05 00:19:06;;;;;;;4.85;2.40;;;6.00;99.90;;;;;;5054270;28;20199;-68
2021/12/05 00:21:41;;;;;;;3.95;1.88;;;6.00;99.90;;;;;;5054036;28;20239;-69
2021/12/05 00:24:12;;;;;;;4.38;2.05;;;6.00;99.90;;;;;;5054115;28;20292;-68
2021/12/05 00:26:39;;;;;;;4.55;2.08;;;6.00;99.90;;;;;;5054009;28;20196;-68
2021/12/05 00:29:16;;;;;;;2.95;1.70;;;6.10;99.90;;;;;;5054083;28;20677;-68
2021/12/05 00:34:57;;;;;;;3.67;1.67;;;6.20;99.90;;;;;;5038182;28;20191;-69
2021/12/05 00:55:19;;;;;;;2.72;1.70;;;6.30;99.90;;;;;;5059837;28;20201;-68
2021/12/05 01:00:59;;;;;;;3.38;1.50;;;6.30;99.90;;;;;;5077569;28;20559;-67
2021/12/05 01:09:14;;;;;;;2.17;1.33;;;6.40;99.90;;;;;;5090680;28;20201;-67
2021/12/05 01:14:27;;;;;;;3.05;1.73;;;6.40;99.90;;;;;;5057004;28;20228;-68
2021/12/05 01:16:54;;;;;;;2.17;1.80;;;6.30;99.90;;;;;;5090763;28;20248;-67
2021/12/05 01:19:24;;;;;;;2.33;2.13;;;6.20;99.90;;;;;;5090709;28;20211;-67
2021/12/05 01:21:53;;;;;;;2.63;1.60;;;6.10;99.90;;;;;;5090407;28;20744;-67
2021/12/05 01:24:32;;;;;;;2.38;1.63;;;6.00;99.90;;;;;;5090539;28;20206;-68
2021/12/05 01:27:06;;;;;;;7.22;1.73;;;6.00;99.90;;;;;;5090442;28;20242;-67
2021/12/05 01:29:41;;;;;;;4.65;1.48;;;5.90;99.90;;;;;;5090440;28;20202;-67
2021/12/05 01:32:17;;;;;;;2.90;1.55;;;5.90;99.90;;;;;;5090435;28;20588;-67
2021/12/05 01:34:55;;;;;;;2.22;1.40;;;5.90;99.90;;;;;;5090202;28;20206;-68
2021/12/05 01:37:32;;;;;;;3.05;1.67;;;5.90;99.90;;;;;;5090393;28;20572;-67
2021/12/05 01:40:19;;;;;;;2.85;1.70;;;5.90;99.90;;;;;;5090381;28;20198;-67
2021/12/05 01:54:27;;;;;;;1.85;1.70;;;5.90;99.90;;;;;;5074077;28;20228;-67
2021/12/05 01:57:23;;;;;;;7.60;2.08;;;5.90;99.90;;;;;;5090006;28;20202;-67
2021/12/05 02:07:35;;;;;;;1.63;1.52;;;5.90;99.90;;;;;;5079103;28;20175;-67
2021/12/05 02:33:47;;;;;;;2.72;1.90;;;5.70;99.90;;;;;;5075559;28;20680;-67
2021/12/05 02:41:46;;;;;;;1.80;1.42;;;5.60;99.90;;;;;;5075177;28;20688;-67
2021/12/05 02:44:20;;;;;;;3.90;2.00;;;5.50;99.90;;;;;;5075657;28;20260;-67
2021/12/05 02:46:49;;;;;;;3.95;1.50;;;5.50;99.90;;;;;;5075673;28;20606;-67
2021/12/05 02:49:17;;;;;;;2.33;1.50;;;5.50;99.90;;;;;;5075489;28;20586;-68
2021/12/05 02:51:52;;;;;;;3.63;1.80;;;5.50;99.90;;;;;;5075020;28;20322;-68
2021/12/05 02:54:21;;;;;;;2.40;1.60;;;5.60;99.90;;;;;;5075329;28;20744;-67
2021/12/05 02:56:50;;;;;;;2.40;1.70;;;5.60;99.90;;;;;;5075401;28;20207;-67
2021/12/05 02:59:28;;;;;;;2.08;1.80;;;5.70;99.90;;;;;;5075324;28;20203;-67
2021/12/05 03:02:02;;;;;;;2.38;1.55;;;5.70;99.90;;;;;;5074973;28;20700;-68
2021/12/05 03:04:32;;;;;;;3.78;2.10;;;5.70;99.90;;;;;;5075058;28;20210;-68
2021/12/05 03:07:00;;;;;;;3.03;1.75;;;5.70;99.90;;;;;;5075433;28;20198;-68
2021/12/05 03:09:28;;;;;;;4.60;1.50;;;5.70;99.90;;;;;;5075126;28;20206;-67
2021/12/05 03:11:55;;;;;;;2.53;1.80;;;5.70;99.90;;;;;;5074676;28;20223;-67
2021/12/05 03:14:23;;;;;;;2.70;1.83;;;5.70;99.90;;;;;;5073892;28;20233;-68
2021/12/05 03:16:50;;;;;;;1.90;1.60;;;5.70;99.90;;;;;;5074988;28;20203;-67
2021/12/05 03:19:19;;;;;;;4.40;1.60;;;5.70;99.90;;;;;;5074744;28;20213;-67
2021/12/05 03:21:48;;;;;;;1.50;1.40;;;5.70;99.90;;;;;;5074564;28;20306;-67
2021/12/05 03:24:18;;;;;;;2.85;1.90;;;5.70;99.90;;;;;;5074593;28;20297;-67
2021/12/05 03:26:48;;;;;;;4.07;1.92;;;5.80;99.90;;;;;;5074521;28;20209;-68
2021/12/05 03:29:17;;;;;;;2.03;1.52;;;5.70;99.90;;;;;;5074995;28;20205;-67
2021/12/05 03:31:46;;;;;;;2.83;1.77;;;5.70;99.90;;;;;;5074556;28;20308;-67
2021/12/05 03:34:15;;;;;;;4.20;1.60;;;5.80;99.90;;;;;;5074454;28;20202;-67
2021/12/05 03:36:45;;;;;;;3.15;1.42;;;5.80;99.90;;;;;;5074443;28;20213;-68
2021/12/05 03:39:12;;;;;;;2.47;1.83;;;5.80;99.90;;;;;;5074438;28;20209;-67
2021/12/05 03:41:40;;;;;;;2.38;1.92;;;5.80;99.90;;;;;;5074471;28;20230;-68
2021/12/05 03:44:11;;;;;;;2.25;1.85;;;5.70;99.90;;;;;;5074439;28;20198;-67
2021/12/05 03:46:39;;;;;;;2.60;1.80;;;5.70;99.90;;;;;;5074222;28;20209;-67
2021/12/05 03:49:09;;;;;;;2.47;1.42;;;5.70;99.90;;;;;;5074320;28;20297;-67
2021/12/05 03:51:50;;;;;;;2.05;1.85;;;5.70;99.90;;;;;;5074192;28;20254;-67
2021/12/05 03:54:18;;;;;;;2.20;2.00;;;5.60;99.90;;;;;;5074868;28;20305;-67
2021/12/05 03:56:45;;;;;;;1.95;1.85;;;5.60;99.90;;;;;;5073963;28;20578;-67
2021/12/05 03:59:14;;;;;;;2.40;1.88;;;5.60;99.90;;;;;;5074150;28;20203;-67
2021/12/05 04:01:42;;;;;;;2.80;1.88;;;5.60;99.90;;;;;;5073871;28;20313;-67
2021/12/05 04:04:10;;;;;;;4.80;1.95;;;5.60;99.90;;;;;;5073782;28;20214;-67
2021/12/05 04:06:37;;;;;;;1.85;1.50;;;5.60;99.90;;;;;;5073847;28;20203;-67
2021/12/05 04:09:08;;;;;;;2.60;1.50;;;5.50;99.90;;;;;;5074064;28;20301;-67
2021/12/05 04:11:40;;;;;;;2.85;1.80;;;5.40;99.90;;;;;;5073937;28;20226;-67
2021/12/05 04:14:09;;;;;;;5.65;2.58;;;5.30;99.90;;;;;;5073828;28;20203;-67
2021/12/05 04:16:39;;;;;;;2.45;1.90;;;5.30;99.90;;;;;;5073629;28;20206;-68
2021/12/05 04:19:07;;;;;;;1.70;1.60;;;5.30;99.90;;;;;;5073842;28;20202;-67
2021/12/05 04:21:36;;;;;;;3.60;1.50;;;5.30;99.90;;;;;;5073818;28;20219;-67
2021/12/05 04:24:05;;;;;;;4.00;1.95;;;5.30;99.90;;;;;;5073823;28;20217;-67
2021/12/05 04:26:32;;;;;;;4.82;1.88;;;5.30;99.90;;;;;;5073396;28;20560;-67
2021/12/05 04:28:59;;;;;;;2.70;1.70;;;5.30;99.90;;;;;;5073720;28;20248;-67
2021/12/05 04:31:26;;;;;;;1.90;1.70;;;5.40;99.90;;;;;;5073631;28;20230;-67
2021/12/05 04:33:54;;;;;;;3.17;1.67;;;5.40;99.90;;;;;;5073461;28;20298;-67
2021/12/05 04:36:21;;;;;;;2.88;1.45;;;5.40;99.90;;;;;;5073424;28;20687;-67
2021/12/05 04:38:49;;;;;;;3.10;1.90;;;5.50;99.90;;;;;;5073682;28;20629;-67
2021/12/05 04:41:16;;;;;;;4.75;1.70;;;5.50;99.90;;;;;;5073350;28;20221;-67
2021/12/05 04:43:45;;;;;;;1.95;1.52;;;5.50;99.90;;;;;;5073273;28;20617;-67
2021/12/05 04:46:14;;;;;;;1.85;1.75;;;5.50;99.90;;;;;;5073147;28;20205;-67
2021/12/05 04:48:42;;;;;;;4.22;1.88;;;5.50;99.90;;;;;;5073931;28;20206;-68
2021/12/05 04:51:10;;;;;;;2.28;1.48;;;5.60;99.90;;;;;;5073162;28;20227;-67
2021/12/05 04:53:37;;;;;;;3.72;1.65;;;5.60;99.90;;;;;;5073562;28;20211;-67
2021/12/05 04:56:05;;;;;;;2.15;1.55;;;5.60;99.90;;;;;;5073072;28;20237;-67
2021/12/05 04:58:31;;;;;;;9.88;5.78;;;5.60;99.90;;;;;;5073588;28;20294;-67
2021/12/05 05:00:59;;;;;;;8.07;4.10;;;5.60;99.90;;;;;;5073128;28;20223;-67
2021/12/05 05:03:26;;;;;;;2.92;1.70;;;5.60;99.90;;;;;;5073375;28;20568;-67
2021/12/05 05:06:01;;;;;;;3.60;1.70;;;5.70;99.90;;;;;;5073094;28;20740;-67
2021/12/05 05:08:30;;;;;;;7.78;3.50;;;5.70;99.90;;;;;;5073400;28;20212;-67
2021/12/05 05:10:58;;;;;;;4.60;1.90;;;5.70;99.90;;;;;;5073150;28;20234;-67
2021/12/05 05:13:25;;;;;;;1.75;1.65;;;5.70;99.90;;;;;;5073075;28;20209;-67
2021/12/05 05:15:53;;;;;;;3.90;1.77;;;5.60;99.90;;;;;;5073155;28;20283;-67
2021/12/05 05:18:20;;;;;;;4.72;1.58;;;5.60;99.90;;;;;;5073128;28;20206;-67
2021/12/05 05:20:53;;;;;;;2.92;1.13;;;5.50;99.90;;;;;;5073081;28;20223;-67
2021/12/05 05:23:35;;;;;;;2.50;1.50;;;5.40;99.90;;;;;;5073309;28;20218;-67
2021/12/05 05:29:03;;;;;;;1.38;1.20;;;5.20;99.90;;;;;;5073067;28;20281;-67
2021/12/05 05:40:03;;;;;;;1.70;1.52;;;5.00;99.90;;;;;;5076859;28;20286;-67
2021/12/05 05:45:26;;;;;;;2.88;1.35;;;5.10;99.90;;;;;;5076396;28;20672;-67
2021/12/05 05:48:02;;;;;;;1.38;1.20;;;5.00;99.90;;;;;;5076500;28;20207;-67
2021/12/05 05:50:29;;;;;;;2.35;1.50;;;5.00;99.90;;;;;;5076333;28;20640;-67
2021/12/05 05:52:56;;;;;;;2.30;1.70;;;5.00;99.90;;;;;;5076491;28;20223;-67
2021/12/05 05:55:23;;;;;;;2.97;1.70;;;5.00;99.90;;;;;;5076403;28;20290;-67
2021/12/05 05:58:02;;;;;;;3.53;1.52;;;4.90;99.90;;;;;;5076350;28;20199;-67
2021/12/05 06:00:33;;;;;;;2.58;1.50;;;4.90;99.90;;;;;;5076392;28;20635;-67
2021/12/05 06:05:52;;;;;;;1.45;1.10;;;4.80;99.90;;;;;;5060182;28;20191;-67
2021/12/05 06:08:21;;;;;;;3.33;1.33;;;4.80;99.90;;;;;;5076032;28;20297;-67
2021/12/05 06:10:48;;;;;;;1.60;1.50;;;4.80;99.90;;;;;;5076158;28;20649;-67
2021/12/05 06:13:18;;;;;;;2.30;1.60;;;4.70;99.90;;;;;;5076268;28;20202;-67
2021/12/05 06:15:46;;;;;;;5.60;1.38;;;4.80;99.90;;;;;;5075759;28;20661;-67
2021/12/05 06:18:13;;;;;;;4.93;1.67;;;4.80;99.90;;;;;;5075948;28;20299;-67
2021/12/05 06:20:40;;;;;;;1.27;1.17;;;4.80;99.90;;;;;;5075991;28;20233;-68
2021/12/05 06:23:07;;;;;;;1.63;1.15;;;4.80;99.90;;;;;;5076157;28;20207;-67
2021/12/05 06:25:40;;;;;;;2.42;1.27;;;4.90;99.90;;;;;;5075646;28;20199;-67
2021/12/05 06:28:11;;;;;;;4.97;3.72;;;4.80;99.90;;;;;;5075975;28;20213;-67
2021/12/05 06:30:48;;;;;;;2.35;1.30;;;4.80;99.90;;;;;;5075915;28;20226;-68
2021/12/05 06:39:19;;;;;;;1.40;1.10;;;4.70;99.90;;;;;;5075828;28;20198;-67
2021/12/05 06:42:01;;;;;;;4.40;1.52;;;4.70;99.90;;;;;;5075699;28;20289;-67
2021/12/05 06:47:16;;;;;;;1.33;1.20;;;4.60;99.90;;;;;;5075650;28;20202;-67
2021/12/05 06:49:44;;;;;;;2.13;1.73;;;4.60;99.90;;;;;;5075425;28;20219;-67
2021/12/05 06:52:11;;;;;;;1.15;1.00;;;4.60;99.90;;;;;;5075497;28;20245;-67
2021/12/05 06:54:40;;;;;;;1.65;1.27;;;4.50;99.90;;;;;;5075174;28;20300;-67
2021/12/05 06:57:08;;;;;;;1.60;1.45;;;4.50;99.90;;;;;;5075362;28;20209;-67
2021/12/05 06:59:37;;;;;;;3.15;1.30;;;4.40;99.90;;;;;;5075124;28;20205;-67
2021/12/05 07:02:05;;;;;;;2.30;1.52;;;4.40;99.90;;;;;;5074996;28;20219;-67
2021/12/05 07:04:54;;;;;;;2.58;1.60;;;4.30;99.90;;;;;;5075087;28;20268;-67
2021/12/05 07:07:23;;;;;;;2.08;1.35;;;4.30;99.90;;;;;;5075211;28;20235;-68
2021/12/05 07:09:52;;;;;;;2.25;1.65;;;4.40;99.90;;;;;;5074882;28;20199;-67
2021/12/05 07:15:04;;;;;;;2.75;1.80;;;4.40;99.90;;;;;;5074694;28;20557;-67
2021/12/05 07:20:12;;;;;;;3.67;1.80;;;4.70;99.90;;;;;;5074935;28;20659;-67
2021/12/05 07:22:49;;;;;;;3.88;1.73;;;4.80;99.90;;;;;;5075332;28;20465;-67
2021/12/05 07:25:28;;;;;;;2.78;1.75;;;4.90;99.90;;;;;;5074577;28;20260;-67
2021/12/05 07:41:50;;;;;;;1.35;1.20;;;5.00;99.90;;;;;;5074332;28;20733;-67
2021/12/05 07:44:17;;;;;;;2.22;1.10;;;4.90;99.90;;;;;;5074471;28;20252;-67
2021/12/05 07:46:45;;;;;;;2.33;1.30;;;4.80;99.90;;;;;;5074275;28;20289;-67
2021/12/05 07:49:13;;;;;;;1.63;1.10;;;4.80;99.90;;;;;;5074196;28;20203;-67
2021/12/05 07:51:46;;;;;;;5.00;1.50;;;4.70;99.90;;;;;;5073887;28;20321;-67
2021/12/05 07:54:26;;;;;;;2.60;1.58;;;4.70;99.90;;;;;;5074330;28;20213;-67
2021/12/05 07:57:01;;;;;;;4.30;1.77;;;4.60;99.90;;;;;;5074148;28;20652;-67
2021/12/05 07:59:41;;;;;;;3.15;1.90;;;4.70;99.90;;;;;;5073681;28;20202;-67
2021/12/05 08:16:01;;;;;;;4.63;3.10;;;4.70;99.90;;;;;;5073705;28;20564;-67
2021/12/05 08:18:30;;;;;;;3.45;2.50;;;4.60;99.90;;;;;;5073861;28;20207;-67
2021/12/05 08:20:59;;;;;;;3.40;1.63;;;4.50;99.90;;;;;;5073805;28;20222;-67
2021/12/05 08:23:28;;;;;;;4.97;2.22;;;4.50;99.90;;;;;;5073836;28;20203;-67
2021/12/05 08:26:03;;;;;;;3.33;2.67;;;4.60;99.90;;;;;;5073605;28;20212;-67
2021/12/05 08:28:47;;;;;;;4.10;3.10;;;4.70;99.90;;;;;;5073839;28;20221;-67
2021/12/05 08:31:24;;;;;;;12.80;8.90;;;4.70;99.90;;;;;;5073751;28;20230;-67
2021/12/05 08:34:02;;;;;;;29.23;14.52;;;4.70;99.90;;;;;;5073751;28;20293;-67
2021/12/05 08:36:53;;;;;;;54.20;27.63;;;4.80;99.90;;;;;;5073553;28;20242;-67
2021/12/05 08:42:34;;;;;;;14.60;9.15;;;4.80;99.90;;;;;;5047638;28;20207;-67
2021/12/05 09:21:09;;;;;;;2.78;1.60;;;5.50;99.90;;;;;;5077571;28;20218;-67
2021/12/05 09:29:38;;;;;;;5.70;1.67;;;5.60;99.90;;;;;;5066072;28;20186;-67
2021/12/05 09:50:59;;;;;;;2.03;1.73;;;6.00;99.90;;;;;;5076849;28;20237;-67
2021/12/05 10:03:01;;;;;;;2.40;1.30;;;6.80;99.90;;;;;;5076277;28;20197;-67
2021/12/05 10:11:20;;;;;;;1.55;1.17;;;6.90;99.90;;;;;;5076269;28;20217;-68
2021/12/05 10:14:13;;;;;;;2.78;1.30;;;6.90;99.90;;;;;;5076227;28;20649;-67
2021/12/05 10:20:09;;;;;;;2.63;1.88;;;6.90;99.90;;;;;;5075831;28;20654;-67
2021/12/05 10:36:19;;;;;;;1.35;1.25;;;7.00;99.90;;;;;;5075572;28;20199;-67
2021/12/05 10:38:50;;;;;;;2.20;1.50;;;7.00;99.90;;;;;;5075925;28;20219;-67
2021/12/05 10:44:04;;;;;;;4.38;2.90;;;7.10;99.90;;;;;;5066745;28;20711;-67
2021/12/05 10:46:32;;;;;;;1.27;1.17;;;7.20;99.90;;;;;;5075500;28;20289;-67
2021/12/05 10:49:03;;;;;;;1.40;1.30;;;7.30;99.90;;;;;;5075346;28;20203;-67
2021/12/05 10:51:33;;;;;;;1.63;1.20;;;7.30;99.90;;;;;;5075349;28;20643;-67
2021/12/05 10:54:02;;;;;;;1.67;1.58;;;7.30;99.90;;;;;;5075366;28;20689;-67
2021/12/05 10:56:31;;;;;;;2.17;1.25;;;7.30;99.90;;;;;;5075284;28;20202;-67
2021/12/05 10:59:00;;;;;;;1.23;1.10;;;7.40;99.90;;;;;;5075367;28;20576;-68
2021/12/05 11:01:34;;;;;;;1.60;1.15;;;7.30;99.90;;;;;;5075036;28;20310;-67
2021/12/05 11:04:04;;;;;;;2.45;1.35;;;7.10;99.90;;;;;;5075397;28;20209;-67
2021/12/05 11:06:51;;;;;;;1.25;1.15;;;7.10;99.90;;;;;;5075120;28;20202;-67
2021/12/05 11:09:22;;;;;;;1.33;1.23;;;7.00;99.90;;;;;;5075179;28;20198;-67
2021/12/05 11:11:52;;;;;;;1.38;1.27;;;7.00;99.90;;;;;;5075136;28;20222;-68
2021/12/05 11:14:21;;;;;;;3.33;1.15;;;7.10;99.90;;;;;;5075243;28;20209;-67
2021/12/05 11:17:04;;;;;;;1.58;1.25;;;7.10;99.90;;;;;;5075041;28;20212;-67
2021/12/05 11:19:35;;;;;;;1.10;0.90;;;7.10;99.90;;;;;;5075002;28;20207;-67
2021/12/05 11:22:12;;;;;;;1.95;1.27;;;7.20;99.90;;;;;;5074976;28;20218;-67
2021/12/05 11:24:41;;;;;;;2.60;1.30;;;7.20;99.90;;;;;;5074524;28;20211;-67
2021/12/05 11:27:21;;;;;;;1.42;1.33;;;7.20;99.90;;;;;;5074694;28;20616;-67
2021/12/05 11:29:54;;;;;;;1.65;1.10;;;7.20;99.90;;;;;;5074809;28;20293;-67
2021/12/05 11:32:28;;;;;;;3.47;0.93;;;7.20;99.90;;;;;;5074716;28;20639;-67
2021/12/05 11:34:55;;;;;;;4.70;1.38;;;7.20;99.90;;;;;;5073615;28;20210;-67
2021/12/05 11:37:23;;;;;;;3.13;1.00;;;7.10;99.90;;;;;;5074325;28;20213;-67
2021/12/05 11:39:50;;;;;;;2.47;1.27;;;7.10;99.90;;;;;;5074479;28;20328;-67
2021/12/05 11:42:20;;;;;;;1.42;1.30;;;7.10;99.90;;;;;;5074402;28;20738;-67
2021/12/05 11:44:54;;;;;;;1.17;0.85;;;7.10;99.90;;;;;;5074277;28;20211;-68
2021/12/05 11:47:22;;;;;;;1.48;1.00;;;7.00;99.90;;;;;;5074460;28;20214;-67
2021/12/05 11:49:49;;;;;;;1.33;1.23;;;7.00;99.90;;;;;;5074230;28;20221;-67
2021/12/05 11:52:24;;;;;;;2.55;1.65;;;7.00;99.90;;;;;;5074274;28;20241;-67
2021/12/05 11:54:52;;;;;;;1.55;1.38;;;7.00;99.90;;;;;;5074150;28;20202;-67
2021/12/05 11:57:21;;;;;;;2.00;1.80;;;7.00;99.90;;;;;;5074253;28;20203;-67
2021/12/05 11:59:50;;;;;;;2.95;1.90;;;7.10;99.90;;;;;;5074224;28;20203;-67
2021/12/05 12:02:21;;;;;;;1.67;1.50;;;7.30;99.90;;;;;;5073826;28;20233;-68
2021/12/05 12:04:53;;;;;;;1.88;1.48;;;7.40;99.90;;;;;;5073984;28;20284;-67
2021/12/05 12:07:32;;;;;;;1.95;1.42;;;7.50;99.90;;;;;;5074113;28;20209;-67
2021/12/05 12:10:04;;;;;;;1.50;1.40;;;7.70;99.90;;;;;;5074102;28;20202;-68
2021/12/05 12:12:31;;;;;;;1.65;1.50;;;7.60;99.90;;;;;;5073648;28;20699;-67
2021/12/05 12:14:58;;;;;;;1.50;1.40;;;7.50;99.90;;;;;;5073759;28;20198;-67
2021/12/05 12:17:25;;;;;;;2.65;1.70;;;7.60;99.90;;;;;;5073939;28;20213;-67
2021/12/05 12:19:54;;;;;;;2.47;1.60;;;7.60;99.90;;;;;;5073777;28;20206;-67
2021/12/05 12:22:23;;;;;;;3.50;1.65;;;7.70;99.90;;;;;;5073537;28;20223;-67
2021/12/05 12:24:53;;;;;;;1.55;1.30;;;7.80;99.90;;;;;;5073632;28;20202;-67
2021/12/05 12:27:21;;;;;;;1.80;1.55;;;7.90;99.90;;;;;;5073863;28;20209;-67
2021/12/05 12:29:49;;;;;;;2.30;1.70;;;8.00;99.90;;;;;;5073682;28;20679;-67
2021/12/05 12:32:20;;;;;;;2.17;1.60;;;8.20;99.90;;;;;;5073568;28;20223;-67
2021/12/05 12:34:47;;;;;;;1.60;1.50;;;8.10;99.90;;;;;;5073563;28;20203;-67
2021/12/05 12:37:14;;;;;;;2.85;2.28;;;8.10;99.90;;;;;;5073689;28;20229;-67
2021/12/05 12:39:44;;;;;;;2.28;1.38;;;8.10;99.90;;;;;;5073690;28;20629;-67
2021/12/05 12:42:19;;;;;;;3.15;2.00;;;8.10;99.90;;;;;;5073694;28;20329;-67
2021/12/05 12:45:09;;;;;;;1.50;1.40;;;8.10;99.90;;;;;;5073605;28;20720;-67
2021/12/05 12:47:39;;;;;;;8.70;4.57;;;8.10;99.90;;;;;;5073522;28;20211;-68
2021/12/05 12:50:34;;;;;;;4.47;2.42;;;8.10;99.90;;;;;;5073185;28;20218;-67
2021/12/05 12:53:09;;;;;;;2.47;2.20;;;8.10;99.90;;;;;;5073560;28;20221;-67
2021/12/05 12:55:38;;;;;;;2.17;2.08;;;8.00;99.90;;;;;;5073193;28;20212;-68
2021/12/05 12:58:10;;;;;;;2.50;1.20;;;7.90;99.90;;;;;;5073489;28;20233;-67
2021/12/05 13:00:46;;;;;;;3.92;1.58;;;7.70;99.90;;;;;;5073242;28;20260;-68
2021/12/05 13:03:26;;;;;;;3.67;1.10;;;7.70;99.90;;;;;;5073478;28;20237;-67
2021/12/05 13:11:49;;;;;;;1.95;1.02;;;7.50;99.90;;;;;;5073088;28;20247;-67
2021/12/05 13:14:19;;;;;;;1.25;0.93;;;7.60;99.90;;;;;;5073259;28;20268;-67
2021/12/05 13:16:48;;;;;;;1.23;1.13;;;7.70;99.90;;;;;;5072947;28;20364;-67
2021/12/05 13:19:19;;;;;;;1.77;1.30;;;7.90;99.90;;;;;;5073093;28;20293;-67
2021/12/05 13:21:49;;;;;;;1.77;0.90;;;8.00;99.90;;;;;;5073227;28;20317;-67
2021/12/05 13:24:23;;;;;;;1.83;1.05;;;8.10;99.90;;;;;;5073252;28;20245;-68
2021/12/05 13:26:52;;;;;;;2.67;0.93;;;8.10;99.90;;;;;;5073151;28;20229;-67
2021/12/05 13:29:22;;;;;;;6.57;4.00;;;8.00;99.90;;;;;;5072952;28;20687;-67
2021/12/05 13:31:56;;;;;;;0.82;0.82;;;7.90;99.90;;;;;;5073345;28;20229;-67
2021/12/05 13:34:30;;;;;;;0.95;0.90;;;7.80;99.90;;;;;;5072801;28;20313;-67
2021/12/05 13:37:19;;;;;;;1.50;1.40;;;7.80;99.90;;;;;;5073117;28;20293;-68
2021/12/05 13:39:48;;;;;;;2.60;1.55;;;7.70;99.90;;;;;;5072835;28;20209;-67
2021/12/05 13:42:18;;;;;;;3.90;2.42;;;7.70;99.90;;;;;;5072693;28;20223;-67
2021/12/05 13:45:07;;;;;;;3.92;3.50;;;7.60;99.90;;;;;;5072847;28;20298;-67
2021/12/05 13:47:38;;;;;;;2.47;2.20;;;7.60;99.90;;;;;;5072899;28;20264;-67
2021/12/05 13:50:31;;;;;;;6.85;3.33;;;7.50;99.90;;;;;;5072900;28;20303;-67
2021/12/05 13:53:15;;;;;;;2.72;1.95;;;7.60;99.90;;;;;;5072995;28;20211;-68
2021/12/05 13:55:44;;;;;;;2.05;1.73;;;7.60;99.90;;;;;;5072561;28;20213;-68
2021/12/05 13:58:21;;;;;;;1.20;1.10;;;7.50;99.90;;;;;;5074312;28;20202;-68
2021/12/05 14:00:53;;;;;;;8.13;5.55;;;7.60;99.90;;;;;;5076468;28;20222;-68
2021/12/05 14:03:57;;;;;;;2.53;2.30;;;7.40;99.90;;;;;;5076267;28;20183;-68
2021/12/05 14:06:34;;;;;;;1.08;0.90;;;7.40;99.90;;;;;;5025364;28;20552;-68
2021/12/05 14:09:15;;;;;;;1.10;0.80;;;7.30;99.90;;;;;;5076382;28;20207;-68
2021/12/05 14:11:53;;;;;;;1.00;1.00;;;7.30;99.90;;;;;;5076243;28;20219;-68
2021/12/05 14:14:22;;;;;;;1.30;1.20;;;7.30;99.90;;;;;;5076199;28;20226;-68
2021/12/05 14:16:53;;;;;;;4.63;2.20;;;7.30;99.90;;;;;;5076128;28;20199;-68
2021/12/05 14:19:23;;;;;;;14.80;7.32;;;7.30;99.90;;;;;;5076159;28;20207;-68
2021/12/05 14:21:52;;;;;;;2.70;2.05;;;7.30;99.90;;;;;;5076101;28;20226;-67
2021/12/05 14:24:24;;;;;;;5.05;2.10;;;7.30;99.90;;;;;;5075939;28;20199;-67
2021/12/05 14:26:52;;;;;;;2.70;2.00;;;7.40;99.90;;;;;;5075979;28;20209;-68
2021/12/05 14:29:21;;;;;;;2.30;2.10;;;7.30;99.90;;;;;;5075886;28;20225;-68
2021/12/05 14:31:52;;;;;;;1.42;1.33;;;7.30;99.90;;;;;;5075663;28;20233;-68
2021/12/05 14:34:19;;;;;;;2.70;1.63;;;7.30;99.90;;;;;;5075828;28;20233;-68
2021/12/05 14:36:50;;;;;;;1.98;1.65;;;7.20;99.90;;;;;;5075666;28;20683;-68
2021/12/05 14:39:21;;;;;;;1.60;1.50;;;7.10;99.90;;;;;;5075893;28;20203;-68
2021/12/05 14:41:50;;;;;;;1.48;1.38;;;7.00;99.90;;;;;;5075607;28;20222;-68
2021/12/05 14:44:18;;;;;;;1.90;1.60;;;6.90;99.90;;;;;;5075711;28;20203;-68
2021/12/05 14:46:53;;;;;;;2.72;2.35;;;7.00;99.90;;;;;;5075547;28;20234;-68
2021/12/05 14:49:21;;;;;;;3.53;2.28;;;6.90;99.90;;;;;;5075681;28;20206;-68
2021/12/05 14:51:49;;;;;;;3.67;2.40;;;6.70;99.90;;;;;;5075486;28;20219;-68
2021/12/05 14:54:27;;;;;;;2.63;2.33;;;6.60;99.90;;;;;;5075470;28;20223;-68
2021/12/05 14:56:55;;;;;;;2.30;2.08;;;6.40;99.90;;;;;;5075249;28;20698;-68
2021/12/05 14:59:22;;;;;;;1.98;1.88;;;6.30;99.90;;;;;;5075129;28;20241;-68
2021/12/05 15:01:55;;;;;;;2.08;1.88;;;6.20;99.90;;;;;;5075166;28;20231;-68
2021/12/05 15:04:26;;;;;;;3.13;2.10;;;6.10;99.90;;;;;;5075200;28;20203;-69
2021/12/05 15:06:53;;;;;;;2.50;2.30;;;6.10;99.90;;;;;;5075267;28;20550;-68
2021/12/05 15:09:24;;;;;;;3.70;2.90;;;6.00;99.90;;;;;;5074990;28;20662;-68
2021/12/05 15:11:52;;;;;;;3.40;3.10;;;6.00;99.90;;;;;;5075235;28;20226;-68
2021/12/05 15:14:20;;;;;;;3.03;2.70;;;5.90;99.90;;;;;;5074898;28;20708;-68
2021/12/05 15:17:02;;;;;;;4.03;3.50;;;5.90;99.90;;;;;;5074990;28;20791;-68
2021/12/05 15:19:29;;;;;;;4.40;2.60;;;5.80;99.90;;;;;;5075735;28;20554;-68
2021/12/05 15:21:57;;;;;;;2.75;2.30;;;5.70;99.90;;;;;;5074636;28;20700;-68
2021/12/05 15:24:27;;;;;;;3.90;3.50;;;5.60;99.90;;;;;;5074749;28;20225;-68
2021/12/05 15:26:56;;;;;;;3.95;3.33;;;5.50;99.90;;;;;;5074854;28;20208;-68
2021/12/05 15:29:24;;;;;;;4.22;2.80;;;5.50;99.90;;;;;;5074779;28;20209;-68
2021/12/05 15:31:52;;;;;;;4.63;3.13;;;5.50;99.90;;;;;;5074651;28;20222;-68
2021/12/05 15:34:35;;;;;;;5.10;4.60;;;5.60;99.90;;;;;;5074619;28;20583;-68
2021/12/05 15:37:08;;;;;;;6.15;4.75;;;5.70;99.90;;;;;;5074867;28;20207;-68
2021/12/05 15:39:37;;;;;;;3.95;3.63;;;5.90;99.90;;;;;;5074623;28;20213;-68
2021/12/05 15:42:14;;;;;;;5.20;4.72;;;6.00;99.90;;;;;;5074425;28;20229;-68
2021/12/05 15:44:42;;;;;;;5.05;4.25;;;5.90;99.90;;;;;;5074340;28;20206;-68
2021/12/05 15:47:12;;;;;;;4.78;4.28;;;5.80;99.90;;;;;;5074455;28;20210;-68
2021/12/05 15:50:06;;;;;;;4.38;3.97;;;5.70;99.90;;;;;;5074294;28;20203;-68
2021/12/05 15:52:40;;;;;;;4.90;4.30;;;5.60;99.90;;;;;;5059865;28;20276;-68
2021/12/05 15:55:11;;;;;;;4.80;4.25;;;5.50;99.90;;;;;;5074126;28;20226;-68
2021/12/05 15:57:42;;;;;;;5.20;4.15;;;5.60;99.90;;;;;;5074131;28;20657;-68
2021/12/05 16:00:14;;;;;;;3.97;3.67;;;5.70;99.90;;;;;;5074125;28;20199;-68
2021/12/05 16:02:46;;;;;;;13.52;9.65;;;5.70;99.90;;;;;;5074169;28;20223;-68
2021/12/05 16:05:17;;;;;;;7.25;5.97;;;5.80;99.90;;;;;;5073750;28;20656;-68
2021/12/05 16:07:44;;;;;;;4.65;3.85;;;5.80;99.90;;;;;;5074129;28;20219;-68
2021/12/05 16:10:20;;;;;;;5.10;3.83;;;5.90;99.90;;;;;;5074073;28;20198;-68
2021/12/05 16:12:48;;;;;;;4.88;3.72;;;5.80;99.90;;;;;;5073818;28;20183;-68
2021/12/05 16:15:17;;;;;;;5.10;3.55;;;5.80;99.90;;;;;;5073676;28;20231;-68
2021/12/05 16:17:53;;;;;;;3.58;3.25;;;5.80;99.90;;;;;;5073926;28;20578;-68
2021/12/05 16:20:24;;;;;;;3.58;3.08;;;5.90;99.90;;;;;;5073360;28;20206;-68
2021/12/05 16:23:07;;;;;;;4.70;3.47;;;6.00;99.90;;;;;;5073988;28;20545;-68
2021/12/05 16:25:36;;;;;;;4.07;3.40;;;6.10;99.90;;;;;;5073504;28;20199;-68
2021/12/05 16:28:05;;;;;;;4.25;3.63;;;6.20;99.90;;;;;;5073727;28;20679;-68
2021/12/05 16:30:35;;;;;;;5.57;3.65;;;6.30;99.90;;;;;;5073671;28;20297;-68
2021/12/05 16:33:04;;;;;;;4.20;3.70;;;6.30;99.90;;;;;;5074110;28;20201;-68
2021/12/05 16:35:34;;;;;;;9.63;6.70;;;6.30;99.90;;;;;;5073355;28;20223;-68
2021/12/05 16:38:02;;;;;;;8.32;5.55;;;6.40;99.90;;;;;;5073625;28;20656;-68
2021/12/05 16:41:04;;;;;;;4.38;3.50;;;6.40;99.90;;;;;;5073491;28;20211;-68
2021/12/05 16:43:34;;;;;;;3.58;2.95;;;6.50;99.90;;;;;;5073411;28;20682;-68
2021/12/05 16:46:08;;;;;;;4.68;4.13;;;6.50;99.90;;;;;;5073445;28;20299;-68
2021/12/05 16:48:36;;;;;;;6.40;5.70;;;6.50;99.90;;;;;;5073643;28;20208;-68
2021/12/05 16:51:22;;;;;;;6.03;5.40;;;6.50;99.90;;;;;;5073146;28;20231;-68
2021/12/05 16:53:51;;;;;;;7.25;6.10;;;6.30;99.90;;;;;;5073197;28;20691;-68
2021/12/05 16:56:44;;;;;;;6.20;5.18;;;6.20;99.90;;;;;;5073177;28;20203;-68
2021/12/05 16:59:15;;;;;;;7.38;6.00;;;6.20;99.90;;;;;;5073402;28;20206;-68
2021/12/05 17:01:42;;;;;;;14.25;8.30;;;6.20;99.90;;;;;;5073425;28;20222;-68
2021/12/05 17:04:11;;;;;;;7.15;6.40;;;6.20;99.90;;;;;;5073292;28;20198;-68
2021/12/05 17:06:54;;;;;;;9.80;7.47;;;6.30;99.90;;;;;;5073173;28;20301;-68
2021/12/05 17:09:21;;;;;;;7.30;6.05;;;6.30;99.90;;;;;;5073301;28;20205;-68
2021/12/05 17:11:49;;;;;;;6.47;5.32;;;6.30;99.90;;;;;;5073160;28;20218;-68
2021/12/05 17:14:22;;;;;;;7.15;6.45;;;6.20;99.90;;;;;;5073128;28;20329;-68
2021/12/05 17:16:49;;;;;;;14.65;8.57;;;6.10;99.90;;;;;;5073282;28;20294;-68
2021/12/05 17:19:18;;;;;;;23.67;10.15;;;6.00;99.90;;;;;;5073227;28;20298;-68
2021/12/05 17:21:49;;;;;;;20.33;10.68;;;6.10;99.90;;;;;;5073206;28;20296;-68
2021/12/05 17:24:20;;;;;;;16.63;11.07;;;6.00;99.90;;;;;;5073256;28;20187;-68
2021/12/05 17:26:50;;;;;;;11.90;9.23;;;6.10;99.90;;;;;;5072987;28;20688;-68
2021/12/05 17:29:19;;;;;;;9.32;7.97;;;6.00;99.90;;;;;;5073220;28;20290;-68
2021/12/05 17:31:48;;;;;;;9.77;8.77;;;5.90;99.90;;;;;;5073111;28;20231;-68
2021/12/05 17:34:20;;;;;;;9.52;7.10;;;6.00;99.90;;;;;;5076650;28;20222;-68
2021/12/05 17:36:54;;;;;;;7.60;6.55;;;6.00;99.90;;;;;;5076959;28;20213;-68
2021/12/05 17:39:24;;;;;;;7.57;6.65;;;6.10;99.90;;;;;;5076956;28;20203;-68
2021/12/05 17:41:55;;;;;;;9.30;7.72;;;6.00;99.90;;;;;;5077224;28;20226;-68